sensor_id;sensor_type;location;lat;lon;timestamp;temperature;humidity
21163;DHT22;10739;52.198;20.908;2023-05-28T00:00:47;12.00;71.70
21163;DHT22;10739;52.198;20.908;2023-05-28T00:03:14;12.00;71.80
21163;DHT22;10739;52.198;20.908;2023-05-28T00:05:45;12.00;71.60
21163;DHT22;10739;52.198;20.908;2023-05-28T00:08:11;12.00;71.90
21163;DHT22;10739;52.198;20.908;2023-05-28T00:10:40;11.90;71.70
21163;DHT22;10739;52.198;20.908;2023-05-28T00:13:07;11.90;72.00
21163;DHT22;10739;52.198;20.908;2023-05-28T00:15:33;11.90;72.20
21163;DHT22;10739;52.198;20.908;2023-05-28T00:18:00;11.90;72.00
21163;DHT22;10739;52.198;20.908;2023-05-28T00:20:27;11.90;72.10
21163;DHT22;10739;52.198;20.908;2023-05-28T00:22:53;11.90;72.00
21163;DHT22;10739;52.198;20.908;2023-05-28T00:25:20;11.90;71.80
21163;DHT22;10739;52.198;20.908;2023-05-28T00:27:46;11.90;71.70
21163;DHT22;10739;52.198;20.908;2023-05-28T00:30:12;11.90;71.70
21163;DHT22;10739;52.198;20.908;2023-05-28T00:32:39;11.80;71.80
21163;DHT22;10739;52.198;20.908;2023-05-28T00:35:05;11.80;71.80
21163;DHT22;10739;52.198;20.908;2023-05-28T00:37:32;11.80;72.20
21163;DHT22;10739;52.198;20.908;2023-05-28T00:39:58;11.70;72.10
21163;DHT22;10739;52.198;20.908;2023-05-28T00:42:25;11.70;72.10
21163;DHT22;10739;52.198;20.908;2023-05-28T00:44:52;11.70;72.30
21163;DHT22;10739;52.198;20.908;2023-05-28T00:47:18;11.70;72.30
21163;DHT22;10739;52.198;20.908;2023-05-28T00:49:45;11.70;72.70
21163;DHT22;10739;52.198;20.908;2023-05-28T00:52:14;11.60;72.50
21163;DHT22;10739;52.198;20.908;2023-05-28T00:54:41;11.60;73.20
21163;DHT22;10739;52.198;20.908;2023-05-28T00:57:07;11.60;72.90
21163;DHT22;10739;52.198;20.908;2023-05-28T00:59:34;11.50;74.70
21163;DHT22;10739;52.198;20.908;2023-05-28T01:02:01;11.40;76.50
21163;DHT22;10739;52.198;20.908;2023-05-28T01:04:27;11.30;78.70
21163;DHT22;10739;52.198;20.908;2023-05-28T01:07:00;11.10;76.70
21163;DHT22;10739;52.198;20.908;2023-05-28T01:09:27;11.00;78.10
21163;DHT22;10739;52.198;20.908;2023-05-28T01:11:54;10.90;77.40
21163;DHT22;10739;52.198;20.908;2023-05-28T01:14:22;11.00;76.10
21163;DHT22;10739;52.198;20.908;2023-05-28T01:16:50;11.10;75.50
21163;DHT22;10739;52.198;20.908;2023-05-28T01:19:19;11.20;75.10
21163;DHT22;10739;52.198;20.908;2023-05-28T01:22:03;11.20;75.10
21163;DHT22;10739;52.198;20.908;2023-05-28T01:24:35;11.20;74.70
21163;DHT22;10739;52.198;20.908;2023-05-28T01:27:02;11.20;74.40
21163;DHT22;10739;52.198;20.908;2023-05-28T01:29:29;11.20;74.50
21163;DHT22;10739;52.198;20.908;2023-05-28T01:31:56;11.30;74.20
21163;DHT22;10739;52.198;20.908;2023-05-28T01:34:22;11.30;74.40
21163;DHT22;10739;52.198;20.908;2023-05-28T01:36:58;11.30;74.30
21163;DHT22;10739;52.198;20.908;2023-05-28T01:39:33;11.20;74.90
21163;DHT22;10739;52.198;20.908;2023-05-28T01:42:06;11.20;75.20
21163;DHT22;10739;52.198;20.908;2023-05-28T01:44:33;11.20;74.90
21163;DHT22;10739;52.198;20.908;2023-05-28T01:47:01;11.10;76.10
21163;DHT22;10739;52.198;20.908;2023-05-28T01:49:28;11.00;76.60
21163;DHT22;10739;52.198;20.908;2023-05-28T01:51:55;11.10;75.70
21163;DHT22;10739;52.198;20.908;2023-05-28T01:54:21;11.00;75.90
21163;DHT22;10739;52.198;20.908;2023-05-28T01:56:48;11.00;77.60
21163;DHT22;10739;52.198;20.908;2023-05-28T01:59:14;10.80;78.00
21163;DHT22;10739;52.198;20.908;2023-05-28T02:01:40;10.70;79.80
21163;DHT22;10739;52.198;20.908;2023-05-28T02:04:07;10.60;80.00
21163;DHT22;10739;52.198;20.908;2023-05-28T02:06:33;10.70;78.60
21163;DHT22;10739;52.198;20.908;2023-05-28T02:09:00;10.60;80.60
21163;DHT22;10739;52.198;20.908;2023-05-28T02:11:26;10.50;81.30
21163;DHT22;10739;52.198;20.908;2023-05-28T02:13:53;10.40;82.10
21163;DHT22;10739;52.198;20.908;2023-05-28T02:16:20;10.30;84.30
21163;DHT22;10739;52.198;20.908;2023-05-28T02:18:49;10.20;83.00
21163;DHT22;10739;52.198;20.908;2023-05-28T02:21:17;10.20;81.20
21163;DHT22;10739;52.198;20.908;2023-05-28T02:23:48;10.30;82.90
21163;DHT22;10739;52.198;20.908;2023-05-28T02:26:15;10.20;82.90
21163;DHT22;10739;52.198;20.908;2023-05-28T02:28:43;10.20;84.00
21163;DHT22;10739;52.198;20.908;2023-05-28T02:31:10;10.20;82.20
21163;DHT22;10739;52.198;20.908;2023-05-28T02:33:41;10.30;81.50
21163;DHT22;10739;52.198;20.908;2023-05-28T02:36:08;10.30;83.20
21163;DHT22;10739;52.198;20.908;2023-05-28T02:38:37;10.30;82.40
21163;DHT22;10739;52.198;20.908;2023-05-28T02:41:04;10.40;82.00
21163;DHT22;10739;52.198;20.908;2023-05-28T02:43:31;10.40;81.70
21163;DHT22;10739;52.198;20.908;2023-05-28T02:45:57;10.50;81.60
21163;DHT22;10739;52.198;20.908;2023-05-28T02:48:23;10.60;81.40
21163;DHT22;10739;52.198;20.908;2023-05-28T02:50:49;10.60;81.30
21163;DHT22;10739;52.198;20.908;2023-05-28T02:53:19;10.60;81.30
21163;DHT22;10739;52.198;20.908;2023-05-28T02:55:47;10.50;81.50
21163;DHT22;10739;52.198;20.908;2023-05-28T02:58:13;10.60;81.90
21163;DHT22;10739;52.198;20.908;2023-05-28T03:00:40;10.50;82.30
21163;DHT22;10739;52.198;20.908;2023-05-28T03:03:07;10.50;82.10
21163;DHT22;10739;52.198;20.908;2023-05-28T03:05:34;10.50;82.10
21163;DHT22;10739;52.198;20.908;2023-05-28T03:08:01;10.50;82.00
21163;DHT22;10739;52.198;20.908;2023-05-28T03:10:28;10.50;82.50
21163;DHT22;10739;52.198;20.908;2023-05-28T03:12:54;10.50;82.60
21163;DHT22;10739;52.198;20.908;2023-05-28T03:15:20;10.50;82.90
21163;DHT22;10739;52.198;20.908;2023-05-28T03:17:47;10.60;82.80
21163;DHT22;10739;52.198;20.908;2023-05-28T03:20:13;10.60;82.80
21163;DHT22;10739;52.198;20.908;2023-05-28T03:22:40;10.60;82.90
21163;DHT22;10739;52.198;20.908;2023-05-28T03:25:07;10.60;83.00
21163;DHT22;10739;52.198;20.908;2023-05-28T03:27:34;10.60;83.40
21163;DHT22;10739;52.198;20.908;2023-05-28T03:30:00;10.60;83.50
21163;DHT22;10739;52.198;20.908;2023-05-28T03:32:28;10.60;83.40
21163;DHT22;10739;52.198;20.908;2023-05-28T03:34:54;10.70;83.40
21163;DHT22;10739;52.198;20.908;2023-05-28T03:37:21;10.70;83.50
21163;DHT22;10739;52.198;20.908;2023-05-28T03:39:47;10.70;83.40
21163;DHT22;10739;52.198;20.908;2023-05-28T03:42:14;10.70;83.80
21163;DHT22;10739;52.198;20.908;2023-05-28T03:44:40;10.70;83.90
21163;DHT22;10739;52.198;20.908;2023-05-28T03:47:06;10.80;83.90
21163;DHT22;10739;52.198;20.908;2023-05-28T03:49:32;10.80;83.90
21163;DHT22;10739;52.198;20.908;2023-05-28T03:51:58;10.80;83.70
21163;DHT22;10739;52.198;20.908;2023-05-28T03:54:25;10.90;83.50
21163;DHT22;10739;52.198;20.908;2023-05-28T03:56:51;10.90;83.40
21163;DHT22;10739;52.198;20.908;2023-05-28T03:59:17;10.90;84.10
21163;DHT22;10739;52.198;20.908;2023-05-28T04:01:43;10.90;83.60
21163;DHT22;10739;52.198;20.908;2023-05-28T04:04:10;11.00;83.90
21163;DHT22;10739;52.198;20.908;2023-05-28T04:06:37;11.10;83.80
21163;DHT22;10739;52.198;20.908;2023-05-28T04:09:03;11.10;84.00
21163;DHT22;10739;52.198;20.908;2023-05-28T04:11:30;11.10;83.90
21163;DHT22;10739;52.198;20.908;2023-05-28T04:13:56;11.20;83.40
21163;DHT22;10739;52.198;20.908;2023-05-28T04:16:23;11.30;82.90
21163;DHT22;10739;52.198;20.908;2023-05-28T04:18:49;11.30;82.90
21163;DHT22;10739;52.198;20.908;2023-05-28T04:21:16;11.40;83.50
21163;DHT22;10739;52.198;20.908;2023-05-28T04:23:43;11.40;81.90
21163;DHT22;10739;52.198;20.908;2023-05-28T04:26:09;11.40;82.00
21163;DHT22;10739;52.198;20.908;2023-05-28T04:28:35;11.50;82.80
21163;DHT22;10739;52.198;20.908;2023-05-28T04:31:03;11.60;82.50
21163;DHT22;10739;52.198;20.908;2023-05-28T04:33:29;11.70;81.40
21163;DHT22;10739;52.198;20.908;2023-05-28T04:35:57;11.80;80.80
21163;DHT22;10739;52.198;20.908;2023-05-28T04:38:24;11.90;80.10
21163;DHT22;10739;52.198;20.908;2023-05-28T04:40:55;12.00;80.90
21163;DHT22;10739;52.198;20.908;2023-05-28T04:43:21;12.10;78.70
21163;DHT22;10739;52.198;20.908;2023-05-28T04:45:48;12.20;78.00
21163;DHT22;10739;52.198;20.908;2023-05-28T04:48:14;12.30;78.10
21163;DHT22;10739;52.198;20.908;2023-05-28T04:50:41;12.50;78.10
21163;DHT22;10739;52.198;20.908;2023-05-28T04:53:07;12.50;78.20
21163;DHT22;10739;52.198;20.908;2023-05-28T04:55:34;12.60;76.90
21163;DHT22;10739;52.198;20.908;2023-05-28T04:58:00;12.60;76.20
21163;DHT22;10739;52.198;20.908;2023-05-28T05:00:27;12.60;76.40
21163;DHT22;10739;52.198;20.908;2023-05-28T05:02:54;12.80;76.00
21163;DHT22;10739;52.198;20.908;2023-05-28T05:05:20;12.80;75.30
21163;DHT22;10739;52.198;20.908;2023-05-28T05:07:46;13.00;74.60
21163;DHT22;10739;52.198;20.908;2023-05-28T05:10:14;13.10;74.30
21163;DHT22;10739;52.198;20.908;2023-05-28T05:12:40;13.10;75.00
21163;DHT22;10739;52.198;20.908;2023-05-28T05:15:07;13.20;75.20
21163;DHT22;10739;52.198;20.908;2023-05-28T05:17:34;13.20;74.40
21163;DHT22;10739;52.198;20.908;2023-05-28T05:20:02;13.30;74.20
21163;DHT22;10739;52.198;20.908;2023-05-28T05:22:32;13.40;74.50
21163;DHT22;10739;52.198;20.908;2023-05-28T05:24:58;13.50;74.40
21163;DHT22;10739;52.198;20.908;2023-05-28T05:27:24;13.80;73.70
21163;DHT22;10739;52.198;20.908;2023-05-28T05:29:51;13.70;73.30
21163;DHT22;10739;52.198;20.908;2023-05-28T05:32:17;13.70;72.50
21163;DHT22;10739;52.198;20.908;2023-05-28T05:34:43;13.70;72.50
21163;DHT22;10739;52.198;20.908;2023-05-28T05:37:10;13.80;72.20
21163;DHT22;10739;52.198;20.908;2023-05-28T05:39:36;13.80;72.60
21163;DHT22;10739;52.198;20.908;2023-05-28T05:42:02;13.90;72.30
21163;DHT22;10739;52.198;20.908;2023-05-28T05:44:29;14.10;72.50
21163;DHT22;10739;52.198;20.908;2023-05-28T05:46:55;14.20;73.00
21163;DHT22;10739;52.198;20.908;2023-05-28T05:49:21;14.20;72.80
21163;DHT22;10739;52.198;20.908;2023-05-28T05:51:48;14.40;72.40
21163;DHT22;10739;52.198;20.908;2023-05-28T05:54:14;14.40;71.00
21163;DHT22;10739;52.198;20.908;2023-05-28T05:56:40;14.50;70.40
21163;DHT22;10739;52.198;20.908;2023-05-28T05:59:07;14.50;71.20
21163;DHT22;10739;52.198;20.908;2023-05-28T06:01:33;14.60;70.70
21163;DHT22;10739;52.198;20.908;2023-05-28T06:04:00;14.70;70.70
21163;DHT22;10739;52.198;20.908;2023-05-28T06:06:26;14.80;69.50
21163;DHT22;10739;52.198;20.908;2023-05-28T06:08:53;14.80;68.90
21163;DHT22;10739;52.198;20.908;2023-05-28T06:11:19;14.70;68.90
21163;DHT22;10739;52.198;20.908;2023-05-28T06:13:45;14.60;69.90
21163;DHT22;10739;52.198;20.908;2023-05-28T06:16:12;14.70;71.30
21163;DHT22;10739;52.198;20.908;2023-05-28T06:18:38;14.70;71.50
21163;DHT22;10739;52.198;20.908;2023-05-28T06:21:05;14.80;69.50
21163;DHT22;10739;52.198;20.908;2023-05-28T06:23:34;14.90;69.80
21163;DHT22;10739;52.198;20.908;2023-05-28T06:26:00;15.10;67.80
21163;DHT22;10739;52.198;20.908;2023-05-28T06:28:26;15.10;68.20
21163;DHT22;10739;52.198;20.908;2023-05-28T06:30:53;15.20;68.20
21163;DHT22;10739;52.198;20.908;2023-05-28T06:33:19;15.30;69.00
21163;DHT22;10739;52.198;20.908;2023-05-28T06:35:46;15.40;67.80
21163;DHT22;10739;52.198;20.908;2023-05-28T06:38:13;15.40;67.20
21163;DHT22;10739;52.198;20.908;2023-05-28T06:40:39;15.50;67.40
21163;DHT22;10739;52.198;20.908;2023-05-28T06:43:06;15.60;67.30
21163;DHT22;10739;52.198;20.908;2023-05-28T06:45:32;15.70;68.10
21163;DHT22;10739;52.198;20.908;2023-05-28T06:47:59;15.80;66.70
21163;DHT22;10739;52.198;20.908;2023-05-28T06:50:25;15.60;66.50
21163;DHT22;10739;52.198;20.908;2023-05-28T06:52:52;15.70;65.90
21163;DHT22;10739;52.198;20.908;2023-05-28T06:55:18;15.60;64.30
21163;DHT22;10739;52.198;20.908;2023-05-28T06:57:45;15.70;65.70
21163;DHT22;10739;52.198;20.908;2023-05-28T07:00:12;15.60;64.70
21163;DHT22;10739;52.198;20.908;2023-05-28T07:02:44;15.60;66.50
21163;DHT22;10739;52.198;20.908;2023-05-28T07:05:11;15.80;67.10
21163;DHT22;10739;52.198;20.908;2023-05-28T07:07:38;15.90;65.60
21163;DHT22;10739;52.198;20.908;2023-05-28T07:10:05;16.10;64.60
21163;DHT22;10739;52.198;20.908;2023-05-28T07:12:32;16.20;64.70
21163;DHT22;10739;52.198;20.908;2023-05-28T07:14:58;16.30;62.90
21163;DHT22;10739;52.198;20.908;2023-05-28T07:17:24;16.40;62.10
21163;DHT22;10739;52.198;20.908;2023-05-28T07:19:51;16.30;60.90
21163;DHT22;10739;52.198;20.908;2023-05-28T07:22:17;16.50;60.60
21163;DHT22;10739;52.198;20.908;2023-05-28T07:24:43;16.60;60.00
21163;DHT22;10739;52.198;20.908;2023-05-28T07:27:09;16.80;59.80
21163;DHT22;10739;52.198;20.908;2023-05-28T07:29:36;16.80;59.80
21163;DHT22;10739;52.198;20.908;2023-05-28T07:32:02;16.90;60.90
21163;DHT22;10739;52.198;20.908;2023-05-28T07:34:28;16.70;60.60
21163;DHT22;10739;52.198;20.908;2023-05-28T07:36:55;16.80;59.60
21163;DHT22;10739;52.198;20.908;2023-05-28T07:39:21;17.00;60.30
21163;DHT22;10739;52.198;20.908;2023-05-28T07:41:48;16.80;59.10
21163;DHT22;10739;52.198;20.908;2023-05-28T07:44:14;16.90;58.80
21163;DHT22;10739;52.198;20.908;2023-05-28T07:46:43;17.10;58.80
21163;DHT22;10739;52.198;20.908;2023-05-28T07:49:09;17.10;58.80
21163;DHT22;10739;52.198;20.908;2023-05-28T07:51:36;17.40;58.60
21163;DHT22;10739;52.198;20.908;2023-05-28T07:54:02;17.50;58.30
21163;DHT22;10739;52.198;20.908;2023-05-28T07:56:29;17.50;59.20
21163;DHT22;10739;52.198;20.908;2023-05-28T07:58:56;17.50;58.40
21163;DHT22;10739;52.198;20.908;2023-05-28T08:01:22;17.80;58.60
21163;DHT22;10739;52.198;20.908;2023-05-28T08:03:50;18.30;58.70
21163;DHT22;10739;52.198;20.908;2023-05-28T08:06:17;18.60;56.80
21163;DHT22;10739;52.198;20.908;2023-05-28T08:08:44;18.40;56.20
21163;DHT22;10739;52.198;20.908;2023-05-28T08:11:10;18.40;57.00
21163;DHT22;10739;52.198;20.908;2023-05-28T08:13:42;18.30;57.70
21163;DHT22;10739;52.198;20.908;2023-05-28T08:16:12;18.50;58.00
21163;DHT22;10739;52.198;20.908;2023-05-28T08:18:38;18.20;57.20
21163;DHT22;10739;52.198;20.908;2023-05-28T08:21:05;18.40;56.60
21163;DHT22;10739;52.198;20.908;2023-05-28T08:23:33;18.60;56.00
21163;DHT22;10739;52.198;20.908;2023-05-28T08:26:04;18.90;55.10
21163;DHT22;10739;52.198;20.908;2023-05-28T08:28:30;19.00;54.80
21163;DHT22;10739;52.198;20.908;2023-05-28T08:30:57;18.90;55.80
21163;DHT22;10739;52.198;20.908;2023-05-28T08:33:23;19.00;55.50
21163;DHT22;10739;52.198;20.908;2023-05-28T08:35:50;19.40;55.70
21163;DHT22;10739;52.198;20.908;2023-05-28T08:38:16;19.30;54.70
21163;DHT22;10739;52.198;20.908;2023-05-28T08:40:47;19.40;54.80
21163;DHT22;10739;52.198;20.908;2023-05-28T08:43:15;19.50;54.10
21163;DHT22;10739;52.198;20.908;2023-05-28T08:45:42;19.30;54.50
21163;DHT22;10739;52.198;20.908;2023-05-28T08:48:09;19.60;55.00
21163;DHT22;10739;52.198;20.908;2023-05-28T08:50:38;19.90;54.20
21163;DHT22;10739;52.198;20.908;2023-05-28T08:53:13;20.00;54.00
21163;DHT22;10739;52.198;20.908;2023-05-28T08:55:44;20.10;53.70
21163;DHT22;10739;52.198;20.908;2023-05-28T08:58:11;20.10;53.10
21163;DHT22;10739;52.198;20.908;2023-05-28T09:00:38;20.00;52.70
21163;DHT22;10739;52.198;20.908;2023-05-28T09:03:06;19.80;53.70
21163;DHT22;10739;52.198;20.908;2023-05-28T09:05:35;19.70;53.60
21163;DHT22;10739;52.198;20.908;2023-05-28T09:08:10;19.90;53.60
21163;DHT22;10739;52.198;20.908;2023-05-28T09:10:37;20.20;53.60
21163;DHT22;10739;52.198;20.908;2023-05-28T09:13:04;20.40;52.30
21163;DHT22;10739;52.198;20.908;2023-05-28T09:15:32;20.50;51.90
21163;DHT22;10739;52.198;20.908;2023-05-28T09:18:06;20.30;52.20
21163;DHT22;10739;52.198;20.908;2023-05-28T09:20:33;20.20;52.10
21163;DHT22;10739;52.198;20.908;2023-05-28T09:23:04;20.50;52.10
21163;DHT22;10739;52.198;20.908;2023-05-28T09:25:36;20.70;52.20
21163;DHT22;10739;52.198;20.908;2023-05-28T09:28:04;20.80;51.50
21163;DHT22;10739;52.198;20.908;2023-05-28T09:30:34;20.90;52.00
21163;DHT22;10739;52.198;20.908;2023-05-28T09:33:05;21.00;51.30
21163;DHT22;10739;52.198;20.908;2023-05-28T09:35:33;21.20;51.60
21163;DHT22;10739;52.198;20.908;2023-05-28T09:38:07;20.50;51.70
21163;DHT22;10739;52.198;20.908;2023-05-28T09:40:43;21.20;51.50
21163;DHT22;10739;52.198;20.908;2023-05-28T09:43:10;21.10;51.90
21163;DHT22;10739;52.198;20.908;2023-05-28T09:45:37;21.40;50.90
21163;DHT22;10739;52.198;20.908;2023-05-28T09:48:03;21.20;50.60
21163;DHT22;10739;52.198;20.908;2023-05-28T09:50:30;21.30;50.20
21163;DHT22;10739;52.198;20.908;2023-05-28T09:52:57;20.90;52.20
21163;DHT22;10739;52.198;20.908;2023-05-28T09:55:27;21.60;51.70
21163;DHT22;10739;52.198;20.908;2023-05-28T09:58:06;21.90;51.00
21163;DHT22;10739;52.198;20.908;2023-05-28T10:00:43;22.00;49.50
21163;DHT22;10739;52.198;20.908;2023-05-28T10:06:05;22.20;49.70
21163;DHT22;10739;52.198;20.908;2023-05-28T10:08:37;22.60;49.40
21163;DHT22;10739;52.198;20.908;2023-05-28T10:11:11;23.00;48.90
21163;DHT22;10739;52.198;20.908;2023-05-28T10:13:41;23.00;48.50
21163;DHT22;10739;52.198;20.908;2023-05-28T10:16:11;23.20;48.10
21163;DHT22;10739;52.198;20.908;2023-05-28T10:18:41;23.40;47.70
21163;DHT22;10739;52.198;20.908;2023-05-28T10:21:08;22.80;50.40
21163;DHT22;10739;52.198;20.908;2023-05-28T10:23:37;23.20;47.60
21163;DHT22;10739;52.198;20.908;2023-05-28T10:26:04;21.40;50.30
21163;DHT22;10739;52.198;20.908;2023-05-28T10:28:31;21.90;50.30
21163;DHT22;10739;52.198;20.908;2023-05-28T10:31:08;22.80;48.30
21163;DHT22;10739;52.198;20.908;2023-05-28T10:33:43;23.00;48.60
21163;DHT22;10739;52.198;20.908;2023-05-28T10:36:12;23.80;46.80
21163;DHT22;10739;52.198;20.908;2023-05-28T10:41:20;24.20;46.60
21163;DHT22;10739;52.198;20.908;2023-05-28T10:43:49;24.10;47.00
21163;DHT22;10739;52.198;20.908;2023-05-28T10:46:19;24.60;46.50
21163;DHT22;10739;52.198;20.908;2023-05-28T10:49:04;24.80;46.30
21163;DHT22;10739;52.198;20.908;2023-05-28T10:57:22;25.20;46.00
21163;DHT22;10739;52.198;20.908;2023-05-28T11:02:27;25.00;44.10
21163;DHT22;10739;52.198;20.908;2023-05-28T11:04:56;25.00;44.40
21163;DHT22;10739;52.198;20.908;2023-05-28T11:10:09;25.40;43.30
21163;DHT22;10739;52.198;20.908;2023-05-28T11:12:39;24.80;44.60
21163;DHT22;10739;52.198;20.908;2023-05-28T11:15:11;24.80;44.00
21163;DHT22;10739;52.198;20.908;2023-05-28T11:17:43;25.40;44.10
21163;DHT22;10739;52.198;20.908;2023-05-28T11:20:24;25.60;44.00
21163;DHT22;10739;52.198;20.908;2023-05-28T11:22:52;26.20;42.70
21163;DHT22;10739;52.198;20.908;2023-05-28T11:25:20;26.50;43.00
21163;DHT22;10739;52.198;20.908;2023-05-28T11:27:48;26.90;42.50
21163;DHT22;10739;52.198;20.908;2023-05-28T11:30:17;27.10;43.40
21163;DHT22;10739;52.198;20.908;2023-05-28T11:32:47;27.40;42.30
21163;DHT22;10739;52.198;20.908;2023-05-28T11:35:15;27.10;41.70
21163;DHT22;10739;52.198;20.908;2023-05-28T11:37:43;27.50;41.50
21163;DHT22;10739;52.198;20.908;2023-05-28T11:40:12;27.40;42.00
21163;DHT22;10739;52.198;20.908;2023-05-28T11:42:43;28.00;40.70
21163;DHT22;10739;52.198;20.908;2023-05-28T11:45:12;27.40;41.40
21163;DHT22;10739;52.198;20.908;2023-05-28T11:47:39;27.10;42.00
21163;DHT22;10739;52.198;20.908;2023-05-28T11:50:09;26.70;41.80
21163;DHT22;10739;52.198;20.908;2023-05-28T11:52:40;26.50;41.50
21163;DHT22;10739;52.198;20.908;2023-05-28T11:55:08;26.50;41.90
21163;DHT22;10739;52.198;20.908;2023-05-28T11:57:35;27.10;42.30
21163;DHT22;10739;52.198;20.908;2023-05-28T12:00:10;27.60;41.90
21163;DHT22;10739;52.198;20.908;2023-05-28T12:02:49;28.00;41.80
21163;DHT22;10739;52.198;20.908;2023-05-28T12:05:18;28.30;41.60
21163;DHT22;10739;52.198;20.908;2023-05-28T12:07:47;27.70;41.60
21163;DHT22;10739;52.198;20.908;2023-05-28T12:10:16;27.60;42.20
21163;DHT22;10739;52.198;20.908;2023-05-28T12:12:47;25.70;42.00
21163;DHT22;10739;52.198;20.908;2023-05-28T12:15:20;25.80;43.30
21163;DHT22;10739;52.198;20.908;2023-05-28T12:17:52;26.60;43.70
21163;DHT22;10739;52.198;20.908;2023-05-28T12:23:04;27.20;42.50
21163;DHT22;10739;52.198;20.908;2023-05-28T12:28:15;26.40;42.50
21163;DHT22;10739;52.198;20.908;2023-05-28T12:30:50;26.30;42.80
21163;DHT22;10739;52.198;20.908;2023-05-28T12:33:20;26.50;43.50
21163;DHT22;10739;52.198;20.908;2023-05-28T12:35:47;26.80;43.30
21163;DHT22;10739;52.198;20.908;2023-05-28T12:38:13;26.90;42.00
21163;DHT22;10739;52.198;20.908;2023-05-28T12:40:40;25.50;43.80
21163;DHT22;10739;52.198;20.908;2023-05-28T12:43:07;25.90;44.50
21163;DHT22;10739;52.198;20.908;2023-05-28T12:45:33;25.50;43.10
21163;DHT22;10739;52.198;20.908;2023-05-28T12:48:00;25.20;44.50
21163;DHT22;10739;52.198;20.908;2023-05-28T12:50:26;24.10;44.90
21163;DHT22;10739;52.198;20.908;2023-05-28T12:52:52;24.30;45.30
21163;DHT22;10739;52.198;20.908;2023-05-28T12:55:20;25.10;45.00
21163;DHT22;10739;52.198;20.908;2023-05-28T12:57:46;25.70;44.30
21163;DHT22;10739;52.198;20.908;2023-05-28T13:00:13;26.20;44.40
21163;DHT22;10739;52.198;20.908;2023-05-28T13:02:40;25.30;43.10
21163;DHT22;10739;52.198;20.908;2023-05-28T13:05:07;23.80;45.30
21163;DHT22;10739;52.198;20.908;2023-05-28T13:07:34;23.60;45.90
21163;DHT22;10739;52.198;20.908;2023-05-28T13:10:01;24.40;45.00
21163;DHT22;10739;52.198;20.908;2023-05-28T13:12:30;25.00;44.60
21163;DHT22;10739;52.198;20.908;2023-05-28T13:14:57;25.40;44.10
21163;DHT22;10739;52.198;20.908;2023-05-28T13:17:23;25.50;44.10
21163;DHT22;10739;52.198;20.908;2023-05-28T13:19:49;25.40;44.20
21163;DHT22;10739;52.198;20.908;2023-05-28T13:22:16;25.60;45.00
21163;DHT22;10739;52.198;20.908;2023-05-28T13:24:42;25.50;43.40
21163;DHT22;10739;52.198;20.908;2023-05-28T13:27:08;26.10;44.10
21163;DHT22;10739;52.198;20.908;2023-05-28T13:29:35;26.20;43.20
21163;DHT22;10739;52.198;20.908;2023-05-28T13:32:02;26.60;43.70
21163;DHT22;10739;52.198;20.908;2023-05-28T13:34:28;26.50;43.60
21163;DHT22;10739;52.198;20.908;2023-05-28T13:36:54;26.70;43.40
21163;DHT22;10739;52.198;20.908;2023-05-28T13:39:20;26.10;43.60
21163;DHT22;10739;52.198;20.908;2023-05-28T13:41:48;25.80;44.30
21163;DHT22;10739;52.198;20.908;2023-05-28T13:44:17;25.50;45.60
21163;DHT22;10739;52.198;20.908;2023-05-28T13:46:44;25.50;45.20
21163;DHT22;10739;52.198;20.908;2023-05-28T13:49:10;25.40;44.20
21163;DHT22;10739;52.198;20.908;2023-05-28T13:51:37;25.10;44.70
21163;DHT22;10739;52.198;20.908;2023-05-28T13:54:07;25.20;44.70
21163;DHT22;10739;52.198;20.908;2023-05-28T13:56:33;25.20;44.20
21163;DHT22;10739;52.198;20.908;2023-05-28T13:59:00;24.90;44.60
21163;DHT22;10739;52.198;20.908;2023-05-28T14:01:26;25.20;44.90
21163;DHT22;10739;52.198;20.908;2023-05-28T14:03:52;25.60;43.80
21163;DHT22;10739;52.198;20.908;2023-05-28T14:06:19;25.20;44.10
21163;DHT22;10739;52.198;20.908;2023-05-28T14:08:45;25.70;44.10
21163;DHT22;10739;52.198;20.908;2023-05-28T14:11:11;25.70;43.90
21163;DHT22;10739;52.198;20.908;2023-05-28T14:13:38;25.70;44.30
21163;DHT22;10739;52.198;20.908;2023-05-28T14:16:04;25.70;44.50
21163;DHT22;10739;52.198;20.908;2023-05-28T14:18:31;26.20;43.70
21163;DHT22;10739;52.198;20.908;2023-05-28T14:20:58;26.10;43.30
21163;DHT22;10739;52.198;20.908;2023-05-28T14:23:25;26.10;42.60
21163;DHT22;10739;52.198;20.908;2023-05-28T14:25:51;26.00;43.30
21163;DHT22;10739;52.198;20.908;2023-05-28T14:28:17;26.50;42.60
21163;DHT22;10739;52.198;20.908;2023-05-28T14:30:44;26.50;43.30
21163;DHT22;10739;52.198;20.908;2023-05-28T14:33:10;26.40;42.40
21163;DHT22;10739;52.198;20.908;2023-05-28T14:35:37;26.70;41.90
21163;DHT22;10739;52.198;20.908;2023-05-28T14:38:03;26.80;42.10
21163;DHT22;10739;52.198;20.908;2023-05-28T14:40:30;26.50;42.30
21163;DHT22;10739;52.198;20.908;2023-05-28T14:42:56;26.00;43.40
21163;DHT22;10739;52.198;20.908;2023-05-28T14:45:22;25.60;43.30
21163;DHT22;10739;52.198;20.908;2023-05-28T14:47:49;25.40;43.40
21163;DHT22;10739;52.198;20.908;2023-05-28T14:50:16;25.60;43.20
21163;DHT22;10739;52.198;20.908;2023-05-28T14:52:42;26.00;43.40
21163;DHT22;10739;52.198;20.908;2023-05-28T14:55:08;26.60;42.80
21163;DHT22;10739;52.198;20.908;2023-05-28T14:57:35;25.60;42.80
21163;DHT22;10739;52.198;20.908;2023-05-28T15:00:06;26.20;43.00
21163;DHT22;10739;52.198;20.908;2023-05-28T15:02:34;26.10;42.20
21163;DHT22;10739;52.198;20.908;2023-05-28T15:05:01;25.90;42.60
21163;DHT22;10739;52.198;20.908;2023-05-28T15:07:32;25.70;43.70
21163;DHT22;10739;52.198;20.908;2023-05-28T15:09:58;25.50;43.90
21163;DHT22;10739;52.198;20.908;2023-05-28T15:12:25;24.90;44.80
21163;DHT22;10739;52.198;20.908;2023-05-28T15:14:51;24.60;44.80
21163;DHT22;10739;52.198;20.908;2023-05-28T15:17:18;24.60;44.20
21163;DHT22;10739;52.198;20.908;2023-05-28T15:19:47;23.80;44.80
21163;DHT22;10739;52.198;20.908;2023-05-28T15:22:17;23.90;45.70
21163;DHT22;10739;52.198;20.908;2023-05-28T15:24:46;23.90;45.30
21163;DHT22;10739;52.198;20.908;2023-05-28T15:27:13;23.90;45.40
21163;DHT22;10739;52.198;20.908;2023-05-28T15:29:39;23.80;45.50
21163;DHT22;10739;52.198;20.908;2023-05-28T15:32:10;23.80;45.70
21163;DHT22;10739;52.198;20.908;2023-05-28T15:34:38;23.80;45.00
21163;DHT22;10739;52.198;20.908;2023-05-28T15:37:05;23.50;45.30
21163;DHT22;10739;52.198;20.908;2023-05-28T15:39:32;23.50;45.90